sensor_id;sensor_type;location;lat;lon;timestamp;P1;durP1;ratioP1;P2;durP2;ratioP2
23470;SDS011;11908;50.806;4.424;2023-05-07T00:00:00;8.85;;;3.40;;
23470;SDS011;11908;50.806;4.424;2023-05-07T00:02:26;12.65;;;3.65;;
23470;SDS011;11908;50.806;4.424;2023-05-07T00:04:51;7.95;;;4.18;;
23470;SDS011;11908;50.806;4.424;2023-05-07T00:07:17;10.18;;;3.50;;
23470;SDS011;11908;50.806;4.424;2023-05-07T00:09:43;9.35;;;3.63;;
23470;SDS011;11908;50.806;4.424;2023-05-07T00:12:09;9.50;;;4.78;;
23470;SDS011;11908;50.806;4.424;2023-05-07T00:14:35;8.90;;;4.20;;
23470;SDS011;11908;50.806;4.424;2023-05-07T00:17:01;6.95;;;4.05;;
23470;SDS011;11908;50.806;4.424;2023-05-07T00:19:27;10.85;;;4.00;;
23470;SDS011;11908;50.806;4.424;2023-05-07T00:21:53;5.63;;;3.60;;
23470;SDS011;11908;50.806;4.424;2023-05-07T00:24:19;10.00;;;3.70;;
23470;SDS011;11908;50.806;4.424;2023-05-07T00:26:45;8.18;;;3.85;;
23470;SDS011;11908;50.806;4.424;2023-05-07T00:29:10;10.32;;;4.03;;
23470;SDS011;11908;50.806;4.424;2023-05-07T00:31:36;8.88;;;4.32;;
23470;SDS011;11908;50.806;4.424;2023-05-07T00:34:02;8.02;;;4.38;;
23470;SDS011;11908;50.806;4.424;2023-05-07T00:36:28;13.88;;;3.97;;
23470;SDS011;11908;50.806;4.424;2023-05-07T00:38:54;8.52;;;3.72;;
23470;SDS011;11908;50.806;4.424;2023-05-07T00:41:20;9.23;;;4.05;;
23470;SDS011;11908;50.806;4.424;2023-05-07T00:43:46;11.15;;;3.90;;
23470;SDS011;11908;50.806;4.424;2023-05-07T00:46:12;8.98;;;4.07;;
23470;SDS011;11908;50.806;4.424;2023-05-07T00:48:38;10.27;;;4.45;;
23470;SDS011;11908;50.806;4.424;2023-05-07T00:51:05;9.20;;;4.00;;
23470;SDS011;11908;50.806;4.424;2023-05-07T00:53:30;11.65;;;3.80;;
23470;SDS011;11908;50.806;4.424;2023-05-07T00:55:56;10.60;;;4.38;;
23470;SDS011;11908;50.806;4.424;2023-05-07T00:58:22;7.85;;;4.00;;
23470;SDS011;11908;50.806;4.424;2023-05-07T01:00:48;7.07;;;3.60;;
23470;SDS011;11908;50.806;4.424;2023-05-07T01:03:15;12.98;;;4.25;;
23470;SDS011;11908;50.806;4.424;2023-05-07T01:05:41;12.43;;;3.97;;
23470;SDS011;11908;50.806;4.424;2023-05-07T01:08:08;12.75;;;3.67;;
23470;SDS011;11908;50.806;4.424;2023-05-07T01:10:35;9.75;;;3.85;;
23470;SDS011;11908;50.806;4.424;2023-05-07T01:13:01;10.23;;;3.85;;
23470;SDS011;11908;50.806;4.424;2023-05-07T01:15:27;7.63;;;3.85;;
23470;SDS011;11908;50.806;4.424;2023-05-07T01:17:53;7.55;;;3.90;;
23470;SDS011;11908;50.806;4.424;2023-05-07T01:20:20;10.93;;;4.30;;
23470;SDS011;11908;50.806;4.424;2023-05-07T01:22:47;7.53;;;3.85;;
23470;SDS011;11908;50.806;4.424;2023-05-07T01:25:14;10.40;;;4.18;;
23470;SDS011;11908;50.806;4.424;2023-05-07T01:27:41;8.25;;;3.92;;
23470;SDS011;11908;50.806;4.424;2023-05-07T01:30:07;9.13;;;3.45;;
23470;SDS011;11908;50.806;4.424;2023-05-07T01:32:38;12.18;;;4.00;;
23470;SDS011;11908;50.806;4.424;2023-05-07T01:35:12;11.73;;;4.43;;
23470;SDS011;11908;50.806;4.424;2023-05-07T01:37:55;8.07;;;4.13;;
23470;SDS011;11908;50.806;4.424;2023-05-07T01:40:22;11.23;;;3.70;;
23470;SDS011;11908;50.806;4.424;2023-05-07T01:42:49;7.22;;;3.38;;
23470;SDS011;11908;50.806;4.424;2023-05-07T01:45:15;6.00;;;3.50;;
23470;SDS011;11908;50.806;4.424;2023-05-07T01:47:41;11.40;;;3.85;;
23470;SDS011;11908;50.806;4.424;2023-05-07T01:50:08;9.80;;;3.92;;
23470;SDS011;11908;50.806;4.424;2023-05-07T01:52:35;9.82;;;4.05;;
23470;SDS011;11908;50.806;4.424;2023-05-07T01:55:04;8.60;;;3.80;;
23470;SDS011;11908;50.806;4.424;2023-05-07T01:57:30;7.22;;;3.80;;
23470;SDS011;11908;50.806;4.424;2023-05-07T01:59:56;5.70;;;3.65;;
23470;SDS011;11908;50.806;4.424;2023-05-07T02:02:21;8.43;;;4.00;;
23470;SDS011;11908;50.806;4.424;2023-05-07T02:04:47;11.00;;;4.40;;
23470;SDS011;11908;50.806;4.424;2023-05-07T02:07:13;9.95;;;4.05;;
23470;SDS011;11908;50.806;4.424;2023-05-07T02:09:38;12.73;;;4.35;;
23470;SDS011;11908;50.806;4.424;2023-05-07T02:12:04;9.00;;;4.13;;
23470;SDS011;11908;50.806;4.424;2023-05-07T02:14:30;8.35;;;3.50;;
23470;SDS011;11908;50.806;4.424;2023-05-07T02:16:55;10.65;;;4.18;;
23470;SDS011;11908;50.806;4.424;2023-05-07T02:19:21;6.63;;;3.80;;
23470;SDS011;11908;50.806;4.424;2023-05-07T02:21:47;10.10;;;4.05;;
23470;SDS011;11908;50.806;4.424;2023-05-07T02:24:13;11.70;;;3.92;;
23470;SDS011;11908;50.806;4.424;2023-05-07T02:26:39;9.05;;;3.70;;
23470;SDS011;11908;50.806;4.424;2023-05-07T02:29:06;7.38;;;4.07;;
23470;SDS011;11908;50.806;4.424;2023-05-07T02:31:31;6.95;;;3.80;;
23470;SDS011;11908;50.806;4.424;2023-05-07T02:33:58;7.45;;;4.20;;
23470;SDS011;11908;50.806;4.424;2023-05-07T02:36:24;13.90;;;4.70;;
23470;SDS011;11908;50.806;4.424;2023-05-07T02:38:51;10.80;;;4.15;;
23470;SDS011;11908;50.806;4.424;2023-05-07T02:41:17;9.55;;;4.60;;
23470;SDS011;11908;50.806;4.424;2023-05-07T02:43:42;11.88;;;5.00;;
23470;SDS011;11908;50.806;4.424;2023-05-07T02:46:08;10.48;;;4.88;;
23470;SDS011;11908;50.806;4.424;2023-05-07T02:48:34;11.27;;;4.60;;
23470;SDS011;11908;50.806;4.424;2023-05-07T02:51:00;11.80;;;4.55;;
23470;SDS011;11908;50.806;4.424;2023-05-07T02:53:26;10.00;;;4.55;;
23470;SDS011;11908;50.806;4.424;2023-05-07T02:55:53;8.27;;;4.53;;
23470;SDS011;11908;50.806;4.424;2023-05-07T02:58:19;8.35;;;3.85;;
23470;SDS011;11908;50.806;4.424;2023-05-07T03:00:45;9.77;;;4.07;;
23470;SDS011;11908;50.806;4.424;2023-05-07T03:03:11;7.53;;;3.90;;
23470;SDS011;11908;50.806;4.424;2023-05-07T03:05:36;7.57;;;3.88;;
23470;SDS011;11908;50.806;4.424;2023-05-07T03:08:02;10.95;;;3.78;;
23470;SDS011;11908;50.806;4.424;2023-05-07T03:10:29;9.48;;;3.92;;
23470;SDS011;11908;50.806;4.424;2023-05-07T03:12:54;8.40;;;3.60;;
23470;SDS011;11908;50.806;4.424;2023-05-07T03:15:20;13.30;;;3.40;;
23470;SDS011;11908;50.806;4.424;2023-05-07T03:17:46;12.63;;;3.85;;
23470;SDS011;11908;50.806;4.424;2023-05-07T03:20:15;12.88;;;4.05;;
23470;SDS011;11908;50.806;4.424;2023-05-07T03:22:40;8.43;;;4.28;;
23470;SDS011;11908;50.806;4.424;2023-05-07T03:25:06;7.30;;;3.47;;
23470;SDS011;11908;50.806;4.424;2023-05-07T03:27:33;9.95;;;4.30;;
23470;SDS011;11908;50.806;4.424;2023-05-07T03:29:59;7.38;;;3.95;;
23470;SDS011;11908;50.806;4.424;2023-05-07T03:32:25;10.20;;;4.05;;
23470;SDS011;11908;50.806;4.424;2023-05-07T03:34:51;8.90;;;4.43;;
23470;SDS011;11908;50.806;4.424;2023-05-07T03:37:16;10.93;;;4.38;;
23470;SDS011;11908;50.806;4.424;2023-05-07T03:39:42;12.07;;;4.03;;
23470;SDS011;11908;50.806;4.424;2023-05-07T03:42:08;9.02;;;4.45;;
23470;SDS011;11908;50.806;4.424;2023-05-07T03:44:34;11.10;;;3.90;;
23470;SDS011;11908;50.806;4.424;2023-05-07T03:47:01;7.03;;;4.50;;
23470;SDS011;11908;50.806;4.424;2023-05-07T03:49:27;8.20;;;3.17;;
23470;SDS011;11908;50.806;4.424;2023-05-07T03:51:53;6.57;;;3.17;;
23470;SDS011;11908;50.806;4.424;2023-05-07T03:54:19;8.40;;;4.43;;
23470;SDS011;11908;50.806;4.424;2023-05-07T03:56:44;12.27;;;4.32;;
23470;SDS011;11908;50.806;4.424;2023-05-07T03:59:10;10.75;;;4.55;;
23470;SDS011;11908;50.806;4.424;2023-05-07T04:01:36;9.23;;;4.03;;
23470;SDS011;11908;50.806;4.424;2023-05-07T04:04:02;7.35;;;3.55;;
23470;SDS011;11908;50.806;4.424;2023-05-07T04:06:29;7.97;;;4.10;;
23470;SDS011;11908;50.806;4.424;2023-05-07T04:08:55;9.40;;;3.97;;
23470;SDS011;11908;50.806;4.424;2023-05-07T04:11:21;7.85;;;3.70;;
23470;SDS011;11908;50.806;4.424;2023-05-07T04:13:46;10.18;;;4.22;;
23470;SDS011;11908;50.806;4.424;2023-05-07T04:16:12;8.98;;;3.70;;
23470;SDS011;11908;50.806;4.424;2023-05-07T04:18:38;12.15;;;3.92;;
23470;SDS011;11908;50.806;4.424;2023-05-07T04:21:03;13.70;;;3.60;;
23470;SDS011;11908;50.806;4.424;2023-05-07T04:23:29;9.30;;;3.60;;
23470;SDS011;11908;50.806;4.424;2023-05-07T04:25:55;8.68;;;3.83;;
23470;SDS011;11908;50.806;4.424;2023-05-07T04:28:22;8.20;;;4.10;;
23470;SDS011;11908;50.806;4.424;2023-05-07T04:30:48;9.13;;;4.32;;
23470;SDS011;11908;50.806;4.424;2023-05-07T04:33:14;10.82;;;3.88;;
23470;SDS011;11908;50.806;4.424;2023-05-07T04:35:42;8.15;;;3.95;;
23470;SDS011;11908;50.806;4.424;2023-05-07T04:38:07;11.65;;;3.97;;
23470;SDS011;11908;50.806;4.424;2023-05-07T04:40:35;7.15;;;3.95;;
23470;SDS011;11908;50.806;4.424;2023-05-07T04:43:01;11.57;;;4.13;;
23470;SDS011;11908;50.806;4.424;2023-05-07T04:45:27;8.25;;;3.72;;
23470;SDS011;11908;50.806;4.424;2023-05-07T04:47:52;8.85;;;3.78;;
23470;SDS011;11908;50.806;4.424;2023-05-07T04:50:18;10.35;;;4.28;;
23470;SDS011;11908;50.806;4.424;2023-05-07T04:52:44;8.73;;;3.55;;
23470;SDS011;11908;50.806;4.424;2023-05-07T04:55:10;8.90;;;3.55;;
23470;SDS011;11908;50.806;4.424;2023-05-07T04:57:36;7.47;;;3.80;;
23470;SDS011;11908;50.806;4.424;2023-05-07T05:00:04;7.88;;;3.47;;
23470;SDS011;11908;50.806;4.424;2023-05-07T05:02:30;8.75;;;4.00;;
23470;SDS011;11908;50.806;4.424;2023-05-07T05:04:56;9.02;;;3.95;;
23470;SDS011;11908;50.806;4.424;2023-05-07T05:07:22;6.22;;;3.53;;
23470;SDS011;11908;50.806;4.424;2023-05-07T05:09:47;5.95;;;3.00;;
23470;SDS011;11908;50.806;4.424;2023-05-07T05:12:13;12.60;;;3.50;;
23470;SDS011;11908;50.806;4.424;2023-05-07T05:14:39;6.38;;;3.45;;
23470;SDS011;11908;50.806;4.424;2023-05-07T05:17:04;9.40;;;3.97;;
23470;SDS011;11908;50.806;4.424;2023-05-07T05:19:30;10.00;;;3.70;;
23470;SDS011;11908;50.806;4.424;2023-05-07T05:21:55;6.60;;;3.38;;
23470;SDS011;11908;50.806;4.424;2023-05-07T05:24:21;9.15;;;3.53;;
23470;SDS011;11908;50.806;4.424;2023-05-07T05:26:47;8.70;;;3.20;;
23470;SDS011;11908;50.806;4.424;2023-05-07T05:29:12;7.30;;;3.28;;
23470;SDS011;11908;50.806;4.424;2023-05-07T05:31:38;8.98;;;3.65;;
23470;SDS011;11908;50.806;4.424;2023-05-07T05:34:03;10.60;;;3.55;;
23470;SDS011;11908;50.806;4.424;2023-05-07T05:36:29;6.13;;;3.40;;
23470;SDS011;11908;50.806;4.424;2023-05-07T05:38:55;6.78;;;3.30;;
23470;SDS011;11908;50.806;4.424;2023-05-07T05:41:21;8.23;;;3.05;;
23470;SDS011;11908;50.806;4.424;2023-05-07T05:43:48;6.90;;;3.45;;
23470;SDS011;11908;50.806;4.424;2023-05-07T05:46:13;6.50;;;3.60;;
23470;SDS011;11908;50.806;4.424;2023-05-07T05:48:40;11.52;;;3.63;;
23470;SDS011;11908;50.806;4.424;2023-05-07T05:51:05;8.85;;;3.55;;
23470;SDS011;11908;50.806;4.424;2023-05-07T05:53:31;8.07;;;3.22;;
23470;SDS011;11908;50.806;4.424;2023-05-07T05:55:57;10.68;;;4.10;;
23470;SDS011;11908;50.806;4.424;2023-05-07T05:58:22;7.50;;;3.58;;
23470;SDS011;11908;50.806;4.424;2023-05-07T06:00:48;13.65;;;3.83;;
23470;SDS011;11908;50.806;4.424;2023-05-07T06:03:17;9.80;;;3.88;;
23470;SDS011;11908;50.806;4.424;2023-05-07T06:05:43;7.63;;;3.30;;
23470;SDS011;11908;50.806;4.424;2023-05-07T06:08:08;6.25;;;3.60;;
23470;SDS011;11908;50.806;4.424;2023-05-07T06:10:35;6.88;;;3.10;;
23470;SDS011;11908;50.806;4.424;2023-05-07T06:13:01;12.13;;;4.07;;
23470;SDS011;11908;50.806;4.424;2023-05-07T06:15:27;11.45;;;4.10;;
23470;SDS011;11908;50.806;4.424;2023-05-07T06:17:53;8.38;;;3.85;;
23470;SDS011;11908;50.806;4.424;2023-05-07T06:20:20;12.23;;;4.05;;
23470;SDS011;11908;50.806;4.424;2023-05-07T06:22:46;12.30;;;4.10;;
23470;SDS011;11908;50.806;4.424;2023-05-07T06:25:12;10.75;;;3.83;;
23470;SDS011;11908;50.806;4.424;2023-05-07T06:27:37;9.75;;;3.90;;
23470;SDS011;11908;50.806;4.424;2023-05-07T06:30:04;12.93;;;4.70;;
23470;SDS011;11908;50.806;4.424;2023-05-07T06:32:31;13.18;;;4.85;;
23470;SDS011;11908;50.806;4.424;2023-05-07T06:34:56;11.32;;;4.72;;
23470;SDS011;11908;50.806;4.424;2023-05-07T06:37:22;16.13;;;4.57;;
23470;SDS011;11908;50.806;4.424;2023-05-07T06:39:48;13.77;;;4.78;;
23470;SDS011;11908;50.806;4.424;2023-05-07T06:42:13;10.52;;;4.07;;
23470;SDS011;11908;50.806;4.424;2023-05-07T06:44:39;9.55;;;5.05;;
23470;SDS011;11908;50.806;4.424;2023-05-07T06:47:05;8.90;;;4.28;;
23470;SDS011;11908;50.806;4.424;2023-05-07T06:49:31;11.30;;;4.15;;
23470;SDS011;11908;50.806;4.424;2023-05-07T06:51:56;14.13;;;4.78;;
23470;SDS011;11908;50.806;4.424;2023-05-07T06:54:22;10.35;;;4.75;;
23470;SDS011;11908;50.806;4.424;2023-05-07T06:56:48;10.27;;;4.90;;
23470;SDS011;11908;50.806;4.424;2023-05-07T06:59:13;8.43;;;4.53;;
23470;SDS011;11908;50.806;4.424;2023-05-07T07:01:40;16.02;;;5.60;;
23470;SDS011;11908;50.806;4.424;2023-05-07T07:04:05;9.32;;;4.55;;
23470;SDS011;11908;50.806;4.424;2023-05-07T07:06:31;11.15;;;5.28;;
23470;SDS011;11908;50.806;4.424;2023-05-07T07:08:57;13.65;;;5.03;;
23470;SDS011;11908;50.806;4.424;2023-05-07T07:11:23;11.35;;;5.72;;
23470;SDS011;11908;50.806;4.424;2023-05-07T07:13:49;15.25;;;5.63;;
23470;SDS011;11908;50.806;4.424;2023-05-07T07:16:15;10.20;;;4.90;;
23470;SDS011;11908;50.806;4.424;2023-05-07T07:18:41;12.32;;;5.28;;
23470;SDS011;11908;50.806;4.424;2023-05-07T07:21:07;9.70;;;4.68;;
23470;SDS011;11908;50.806;4.424;2023-05-07T07:23:33;11.07;;;5.10;;
23470;SDS011;11908;50.806;4.424;2023-05-07T07:25:58;9.57;;;4.75;;
23470;SDS011;11908;50.806;4.424;2023-05-07T07:28:24;11.45;;;4.72;;
23470;SDS011;11908;50.806;4.424;2023-05-07T07:30:50;10.80;;;4.63;;
23470;SDS011;11908;50.806;4.424;2023-05-07T07:33:16;11.57;;;4.93;;
23470;SDS011;11908;50.806;4.424;2023-05-07T07:35:41;11.45;;;5.10;;
23470;SDS011;11908;50.806;4.424;2023-05-07T07:38:07;8.30;;;4.18;;
23470;SDS011;11908;50.806;4.424;2023-05-07T07:40:36;8.38;;;4.50;;
23470;SDS011;11908;50.806;4.424;2023-05-07T07:43:02;8.45;;;4.35;;
23470;SDS011;11908;50.806;4.424;2023-05-07T07:45:27;9.88;;;4.72;;
23470;SDS011;11908;50.806;4.424;2023-05-07T07:47:54;8.90;;;4.68;;
23470;SDS011;11908;50.806;4.424;2023-05-07T07:50:19;8.75;;;4.82;;
23470;SDS011;11908;50.806;4.424;2023-05-07T07:52:45;8.77;;;4.38;;
23470;SDS011;11908;50.806;4.424;2023-05-07T07:55:11;9.55;;;5.00;;
23470;SDS011;11908;50.806;4.424;2023-05-07T07:57:37;10.98;;;4.32;;
23470;SDS011;11908;50.806;4.424;2023-05-07T08:00:03;8.07;;;4.63;;
23470;SDS011;11908;50.806;4.424;2023-05-07T08:02:29;10.85;;;4.88;;
23470;SDS011;11908;50.806;4.424;2023-05-07T08:04:55;11.75;;;4.85;;
23470;SDS011;11908;50.806;4.424;2023-05-07T08:07:21;6.60;;;4.00;;
23470;SDS011;11908;50.806;4.424;2023-05-07T08:09:47;9.10;;;4.90;;
23470;SDS011;11908;50.806;4.424;2023-05-07T08:12:13;10.70;;;3.90;;
23470;SDS011;11908;50.806;4.424;2023-05-07T08:14:39;9.07;;;4.22;;
23470;SDS011;11908;50.806;4.424;2023-05-07T08:17:06;12.20;;;4.57;;
23470;SDS011;11908;50.806;4.424;2023-05-07T08:19:31;8.15;;;4.20;;
23470;SDS011;11908;50.806;4.424;2023-05-07T08:21:57;10.13;;;4.82;;
23470;SDS011;11908;50.806;4.424;2023-05-07T08:24:23;6.65;;;3.55;;
23470;SDS011;11908;50.806;4.424;2023-05-07T08:26:48;8.27;;;3.90;;
23470;SDS011;11908;50.806;4.424;2023-05-07T08:29:14;6.93;;;3.70;;
23470;SDS011;11908;50.806;4.424;2023-05-07T08:31:40;8.88;;;3.88;;
23470;SDS011;11908;50.806;4.424;2023-05-07T08:34:06;8.85;;;3.88;;
23470;SDS011;11908;50.806;4.424;2023-05-07T08:36:32;7.70;;;3.92;;
23470;SDS011;11908;50.806;4.424;2023-05-07T08:38:57;9.40;;;3.78;;
23470;SDS011;11908;50.806;4.424;2023-05-07T08:41:24;7.80;;;4.15;;
23470;SDS011;11908;50.806;4.424;2023-05-07T08:43:50;8.35;;;4.07;;
23470;SDS011;11908;50.806;4.424;2023-05-07T08:46:22;8.07;;;4.10;;
23470;SDS011;11908;50.806;4.424;2023-05-07T08:48:51;7.68;;;3.55;;
23470;SDS011;11908;50.806;4.424;2023-05-07T08:51:20;8.32;;;3.50;;
23470;SDS011;11908;50.806;4.424;2023-05-07T08:53:46;8.10;;;3.85;;
23470;SDS011;11908;50.806;4.424;2023-05-07T08:56:13;8.23;;;4.00;;
23470;SDS011;11908;50.806;4.424;2023-05-07T08:58:40;9.07;;;3.78;;
23470;SDS011;11908;50.806;4.424;2023-05-07T09:01:08;9.60;;;4.20;;
23470;SDS011;11908;50.806;4.424;2023-05-07T09:03:37;5.82;;;3.85;;
23470;SDS011;11908;50.806;4.424;2023-05-07T09:06:04;7.32;;;4.10;;
23470;SDS011;11908;50.806;4.424;2023-05-07T09:08:30;9.73;;;4.20;;
23470;SDS011;11908;50.806;4.424;2023-05-07T09:10:58;10.20;;;4.32;;
23470;SDS011;11908;50.806;4.424;2023-05-07T09:13:23;7.55;;;4.00;;
23470;SDS011;11908;50.806;4.424;2023-05-07T09:15:49;7.85;;;3.92;;
23470;SDS011;11908;50.806;4.424;2023-05-07T09:18:15;6.53;;;3.90;;
23470;SDS011;11908;50.806;4.424;2023-05-07T09:20:41;8.68;;;4.60;;
23470;SDS011;11908;50.806;4.424;2023-05-07T09:23:07;10.30;;;4.65;;
23470;SDS011;11908;50.806;4.424;2023-05-07T09:25:34;7.13;;;4.13;;
23470;SDS011;11908;50.806;4.424;2023-05-07T09:28:01;6.72;;;3.38;;
23470;SDS011;11908;50.806;4.424;2023-05-07T09:30:28;10.25;;;3.95;;
23470;SDS011;11908;50.806;4.424;2023-05-07T09:32:58;6.60;;;3.83;;
23470;SDS011;11908;50.806;4.424;2023-05-07T09:35:24;10.18;;;3.50;;
23470;SDS011;11908;50.806;4.424;2023-05-07T09:37:52;6.60;;;3.28;;
23470;SDS011;11908;50.806;4.424;2023-05-07T09:40:20;8.13;;;3.38;;
23470;SDS011;11908;50.806;4.424;2023-05-07T09:42:50;5.25;;;2.78;;
23470;SDS011;11908;50.806;4.424;2023-05-07T09:45:21;6.85;;;3.10;;
23470;SDS011;11908;50.806;4.424;2023-05-07T09:47:47;7.68;;;3.15;;
23470;SDS011;11908;50.806;4.424;2023-05-07T09:50:14;10.15;;;2.78;;
23470;SDS011;11908;50.806;4.424;2023-05-07T09:52:40;8.43;;;2.92;;
23470;SDS011;11908;50.806;4.424;2023-05-07T09:55:08;7.65;;;3.10;;
23470;SDS011;11908;50.806;4.424;2023-05-07T09:57:35;4.90;;;2.50;;
23470;SDS011;11908;50.806;4.424;2023-05-07T10:00:02;5.70;;;2.75;;
23470;SDS011;11908;50.806;4.424;2023-05-07T10:02:34;4.68;;;2.60;;
23470;SDS011;11908;50.806;4.424;2023-05-07T10:05:01;7.60;;;3.20;;
23470;SDS011;11908;50.806;4.424;2023-05-07T10:07:28;6.15;;;2.60;;
23470;SDS011;11908;50.806;4.424;2023-05-07T10:09:55;6.32;;;2.60;;
23470;SDS011;11908;50.806;4.424;2023-05-07T10:12:21;5.15;;;2.35;;
23470;SDS011;11908;50.806;4.424;2023-05-07T10:14:46;6.50;;;2.75;;
23470;SDS011;11908;50.806;4.424;2023-05-07T10:17:13;6.50;;;2.65;;
23470;SDS011;11908;50.806;4.424;2023-05-07T10:19:42;5.10;;;2.67;;
23470;SDS011;11908;50.806;4.424;2023-05-07T10:22:09;7.30;;;2.85;;
23470;SDS011;11908;50.806;4.424;2023-05-07T10:24:36;5.88;;;2.85;;
23470;SDS011;11908;50.806;4.424;2023-05-07T10:27:04;8.15;;;2.80;;
23470;SDS011;11908;50.806;4.424;2023-05-07T10:29:39;6.32;;;2.58;;
23470;SDS011;11908;50.806;4.424;2023-05-07T10:35:21;6.07;;;2.95;;
23470;SDS011;11908;50.806;4.424;2023-05-07T10:37:54;8.98;;;2.72;;
23470;SDS011;11908;50.806;4.424;2023-05-07T10:40:20;9.52;;;2.63;;
23470;SDS011;11908;50.806;4.424;2023-05-07T10:42:56;7.28;;;2.92;;
23470;SDS011;11908;50.806;4.424;2023-05-07T10:45:24;9.10;;;2.80;;
23470;SDS011;11908;50.806;4.424;2023-05-07T10:50:36;4.43;;;3.10;;
23470;SDS011;11908;50.806;4.424;2023-05-07T11:01:00;7.53;;;2.22;;
23470;SDS011;11908;50.806;4.424;2023-05-07T11:03:26;6.63;;;2.38;;
23470;SDS011;11908;50.806;4.424;2023-05-07T11:08:57;3.88;;;2.03;;
23470;SDS011;11908;50.806;4.424;2023-05-07T11:17:07;2.80;;;1.92;;
23470;SDS011;11908;50.806;4.424;2023-05-07T11:19:54;3.40;;;1.98;;
23470;SDS011;11908;50.806;4.424;2023-05-07T11:25:02;4.43;;;2.38;;
23470;SDS011;11908;50.806;4.424;2023-05-07T11:27:28;4.63;;;2.50;;
23470;SDS011;11908;50.806;4.424;2023-05-07T11:29:54;5.28;;;2.03;;
23470;SDS011;11908;50.806;4.424;2023-05-07T11:32:24;3.85;;;2.20;;
23470;SDS011;11908;50.806;4.424;2023-05-07T11:34:51;4.88;;;1.95;;
23470;SDS011;11908;50.806;4.424;2023-05-07T11:37:21;3.35;;;1.95;;
23470;SDS011;11908;50.806;4.424;2023-05-07T11:39:48;3.40;;;1.88;;
23470;SDS011;11908;50.806;4.424;2023-05-07T11:42:29;5.95;;;2.05;;
23470;SDS011;11908;50.806;4.424;2023-05-07T11:44:55;5.32;;;1.65;;
23470;SDS011;11908;50.806;4.424;2023-05-07T11:47:22;5.13;;;1.80;;
23470;SDS011;11908;50.806;4.424;2023-05-07T11:49:48;4.53;;;2.00;;
23470;SDS011;11908;50.806;4.424;2023-05-07T11:52:15;10.57;;;2.40;;
23470;SDS011;11908;50.806;4.424;2023-05-07T11:54:48;7.18;;;2.13;;
23470;SDS011;11908;50.806;4.424;2023-05-07T11:57:15;2.87;;;1.70;;
23470;SDS011;11908;50.806;4.424;2023-05-07T11:59:41;4.90;;;2.22;;
23470;SDS011;11908;50.806;4.424;2023-05-07T12:02:07;3.95;;;1.85;;
23470;SDS011;11908;50.806;4.424;2023-05-07T12:04:33;3.58;;;1.70;;
23470;SDS011;11908;50.806;4.424;2023-05-07T12:06:58;5.13;;;2.30;;
23470;SDS011;11908;50.806;4.424;2023-05-07T12:09:24;3.92;;;1.52;;
23470;SDS011;11908;50.806;4.424;2023-05-07T12:11:51;4.47;;;2.20;;
23470;SDS011;11908;50.806;4.424;2023-05-07T12:14:17;2.80;;;1.77;;
23470;SDS011;11908;50.806;4.424;2023-05-07T12:16:43;4.22;;;2.17;;
23470;SDS011;11908;50.806;4.424;2023-05-07T12:19:09;3.03;;;1.60;;
23470;SDS011;11908;50.806;4.424;2023-05-07T12:21:37;3.97;;;1.80;;
23470;SDS011;11908;50.806;4.424;2023-05-07T12:24:04;3.65;;;1.95;;
23470;SDS011;11908;50.806;4.424;2023-05-07T12:26:30;2.33;;;1.50;;
23470;SDS011;11908;50.806;4.424;2023-05-07T12:28:59;3.55;;;1.60;;
23470;SDS011;11908;50.806;4.424;2023-05-07T12:31:27;4.85;;;1.95;;
23470;SDS011;11908;50.806;4.424;2023-05-07T12:33:53;2.78;;;1.70;;
23470;SDS011;11908;50.806;4.424;2023-05-07T12:36:19;4.85;;;1.98;;
23470;SDS011;11908;50.806;4.424;2023-05-07T12:38:46;3.50;;;1.75;;
23470;SDS011;11908;50.806;4.424;2023-05-07T12:41:15;4.78;;;2.00;;
23470;SDS011;11908;50.806;4.424;2023-05-07T12:43:43;3.33;;;1.80;;
23470;SDS011;11908;50.806;4.424;2023-05-07T12:46:09;3.30;;;1.88;;
23470;SDS011;11908;50.806;4.424;2023-05-07T12:48:36;3.58;;;2.35;;
23470;SDS011;11908;50.806;4.424;2023-05-07T12:51:02;4.10;;;2.33;;
23470;SDS011;11908;50.806;4.424;2023-05-07T12:53:30;6.55;;;2.35;;
23470;SDS011;11908;50.806;4.424;2023-05-07T12:55:56;5.93;;;2.47;;
23470;SDS011;11908;50.806;4.424;2023-05-07T12:58:30;4.72;;;3.03;;
23470;SDS011;11908;50.806;4.424;2023-05-07T13:00:59;4.28;;;2.40;;
23470;SDS011;11908;50.806;4.424;2023-05-07T13:03:29;4.63;;;2.50;;
23470;SDS011;11908;50.806;4.424;2023-05-07T13:06:00;4.30;;;2.50;;
23470;SDS011;11908;50.806;4.424;2023-05-07T13:08:31;4.05;;;2.10;;
23470;SDS011;11908;50.806;4.424;2023-05-07T13:10:59;3.88;;;2.08;;
23470;SDS011;11908;50.806;4.424;2023-05-07T13:13:30;3.75;;;2.35;;
23470;SDS011;11908;50.806;4.424;2023-05-07T13:15:57;4.45;;;2.47;;
23470;SDS011;11908;50.806;4.424;2023-05-07T13:18:24;3.53;;;2.60;;
23470;SDS011;11908;50.806;4.424;2023-05-07T13:20:50;4.00;;;2.85;;
23470;SDS011;11908;50.806;4.424;2023-05-07T13:23:17;4.55;;;3.75;;
23470;SDS011;11908;50.806;4.424;2023-05-07T13:25:42;4.10;;;3.67;;
23470;SDS011;11908;50.806;4.424;2023-05-07T13:28:08;8.52;;;7.70;;
23470;SDS011;11908;50.806;4.424;2023-05-07T13:30:34;5.75;;;3.92;;
23470;SDS011;11908;50.806;4.424;2023-05-07T13:33:00;3.83;;;3.42;;
23470;SDS011;11908;50.806;4.424;2023-05-07T13:35:25;6.50;;;3.90;;
23470;SDS011;11908;50.806;4.424;2023-05-07T13:37:51;5.10;;;3.70;;
23470;SDS011;11908;50.806;4.424;2023-05-07T13:40:18;4.22;;;3.47;;
23470;SDS011;11908;50.806;4.424;2023-05-07T13:42:44;7.47;;;4.13;;
23470;SDS011;11908;50.806;4.424;2023-05-07T13:45:10;4.85;;;4.35;;
23470;SDS011;11908;50.806;4.424;2023-05-07T13:47:35;7.03;;;5.53;;
23470;SDS011;11908;50.806;4.424;2023-05-07T13:50:01;7.10;;;6.40;;
23470;SDS011;11908;50.806;4.424;2023-05-07T13:52:27;7.20;;;6.47;;
23470;SDS011;11908;50.806;4.424;2023-05-07T13:54:52;8.35;;;7.45;;
23470;SDS011;11908;50.806;4.424;2023-05-07T13:57:20;6.95;;;6.35;;
23470;SDS011;11908;50.806;4.424;2023-05-07T13:59:45;8.63;;;6.93;;
23470;SDS011;11908;50.806;4.424;2023-05-07T14:02:11;7.88;;;7.05;;
23470;SDS011;11908;50.806;4.424;2023-05-07T14:04:37;8.10;;;7.40;;
23470;SDS011;11908;50.806;4.424;2023-05-07T14:07:02;9.75;;;7.38;;
23470;SDS011;11908;50.806;4.424;2023-05-07T14:09:28;10.88;;;7.07;;
23470;SDS011;11908;50.806;4.424;2023-05-07T14:11:54;8.35;;;7.45;;
23470;SDS011;11908;50.806;4.424;2023-05-07T14:14:20;11.90;;;7.55;;
23470;SDS011;11908;50.806;4.424;2023-05-07T14:16:45;11.40;;;7.85;;
23470;SDS011;11908;50.806;4.424;2023-05-07T14:19:11;8.20;;;7.35;;
23470;SDS011;11908;50.806;4.424;2023-05-07T14:21:37;9.30;;;8.20;;
23470;SDS011;11908;50.806;4.424;2023-05-07T14:24:03;8.55;;;7.60;;
23470;SDS011;11908;50.806;4.424;2023-05-07T14:26:30;8.10;;;7.30;;
23470;SDS011;11908;50.806;4.424;2023-05-07T14:28:57;9.93;;;8.45;;
23470;SDS011;11908;50.806;4.424;2023-05-07T14:31:23;8.90;;;7.72;;
23470;SDS011;11908;50.806;4.424;2023-05-07T14:33:50;8.32;;;7.53;;
23470;SDS011;11908;50.806;4.424;2023-05-07T14:36:17;7.85;;;7.13;;
23470;SDS011;11908;50.806;4.424;2023-05-07T14:38:45;9.25;;;8.18;;
23470;SDS011;11908;50.806;4.424;2023-05-07T14:41:11;9.43;;;7.43;;
23470;SDS011;11908;50.806;4.424;2023-05-07T14:43:37;8.68;;;7.30;;
23470;SDS011;11908;50.806;4.424;2023-05-07T14:46:02;8.70;;;7.35;;
23470;SDS011;11908;50.806;4.424;2023-05-07T14:48:28;8.23;;;7.05;;
23470;SDS011;11908;50.806;4.424;2023-05-07T14:50:54;7.32;;;6.63;;
23470;SDS011;11908;50.806;4.424;2023-05-07T14:53:19;10.10;;;7.80;;
23470;SDS011;11908;50.806;4.424;2023-05-07T14:55:45;8.90;;;6.47;;
23470;SDS011;11908;50.806;4.424;2023-05-07T14:58:12;7.07;;;5.90;;
23470;SDS011;11908;50.806;4.424;2023-05-07T15:00:37;7.65;;;6.15;;
23470;SDS011;11908;50.806;4.424;2023-05-07T15:03:07;6.88;;;5.95;;